DW5049 Weather Reports


time (UTC)temp
C
wind
direction
speed
KPH
gust
KPH
rain 1hr
cm
rain 24hr
cm
rain mn
cm
humidity
%
barometer
mb
20191019154538 15 226 3.2 12.9 0.00 0.00 0.00 71 1005.1
20191019153026 15 169 8.0 14.5 0.00 0.00 0.00 70 1005.3
20191019151523 15 175 8.0 19.3 0.00 0.00 0.00 70 1005.4
20191019150032 15 201 4.8 17.7 0.00 0.05 0.00 71 1005.4
20191019144558 15 155 8.0 20.9 0.00 0.05 0.00 71 1005.2
20191019143014 15 203 6.4 16.1 0.00 0.05 0.00 72 1005.4
20191019141525 15 175 6.4 14.5 0.00 0.05 0.00 74 1005.1
20191019140022 15 180 6.4 14.5 0.00 0.05 0.00 74 1005.4
20191019134514 15 164 3.2 16.1 0.00 0.05 0.00 74 1005.6
20191019133037 15 211 9.7 19.3 0.00 0.05 0.00 74 1005.6
20191019131543 15 182 3.2 11.3 0.00 0.05 0.00 76 1005.6
20191019130033 14 200 4.8 11.3 0.00 0.05 0.00 77 1005.6
20191019124620 14 186 4.8 12.9 0.00 0.05 0.00 78 1005.6
20191019123123 13 173 4.8 11.3 0.00 0.05 0.00 80 1005.7
20191019121621 13 186 1.6 9.7 0.00 0.05 0.00 83 1005.6
20191019120035 13 234 1.6 17.7 0.00 0.05 0.00 86 1005.7
20191019114616 13 234 6.4 16.1 0.00 0.05 0.00 90 1005.9
20191019113114 13 179 0.0 9.7 0.00 0.05 0.00 94 1006.2
20191019111635 12 155 6.4 20.9 0.00 0.05 0.00 97 1006.7
20191019110043 12 201 8.0 17.7 0.00 0.05 0.00 99 1006.7
20191019104521 12 174 8.0 14.5 0.00 0.05 0.00 100 1006.7
20191019103029 12 121 1.6 11.3 0.00 0.05 0.00 100 1006.7
20191019101518 12 164 3.2 11.3 0.00 0.05 0.00 100 1006.6
20191019100017 11 355 0.0 3.2 0.00 0.05 0.00 100 1006.7
20191019094542 11 343 0.0 1.6 0.00 0.05 0.00 100 1006.7
20191019093035 11 343 0.0 3.2 0.00 0.05 0.00 100 1006.7
20191019091524 11 343 0.0 4.8 0.00 0.05 0.00 100 1006.7
20191019090049 11 343 1.6 4.8 0.00 0.05 0.00 100 1006.7
20191019084534 11 102 0.0 0.0 0.00 0.05 0.00 100 1006.7
20191019083020 11 102 0.0 0.0 0.00 0.05 0.00 100 1006.7
20191019081551 10 102 0.0 3.2 0.00 0.05 0.00 100 1006.7
20191019080034 10 141 1.6 12.9 0.00 0.05 0.00 100 1006.6
20191019074531 10 87 1.6 4.8 0.00 0.05 0.00 100 1006.7
20191019073023 9 319 3.2 4.8 0.00 0.05 0.00 100 1007.1
20191019071510 9 319 0.0 3.2 0.00 0.05 0.00 100 1007.2
20191019070006 8 319 0.0 3.2 0.00 0.05 0.00 100 1007.2
20191019064542 8 319 0.0 0.0 0.00 0.05 0.00 100 1007.2
20191019063028 8 319 0.0 0.0 0.00 0.05 0.00 100 1007.2
20191019061551 8 319 0.0 3.2 0.00 0.05 0.00 100 1007.2
20191019060103 8 319 0.0 6.4 0.00 0.05 0.00 100 1007.2
20191019054546 8 319 0.0 4.8 0.00 0.05 0.00 100 1007.1
20191019053033 8 319 0.0 6.4 0.00 0.05 0.00 99 1007.0
20191019051516 8 345 1.6 4.8 0.00 0.05 0.00 99 1007.1
20191019050044 8 345 0.0 0.0 0.00 0.05 0.00 99 1007.2
20191019044518 8 345 0.0 0.0 0.00 0.05 0.00 99 1007.2
20191019043010 8 345 0.0 0.0 0.00 0.05 0.00 99 1007.4
20191019041509 8 345 0.0 0.0 0.00 0.05 0.00 99 1007.6
20191019040010 8 345 0.0 0.0 0.00 0.05 0.00 99 1007.8
20191019034550 8 345 0.0 0.0 0.00 0.05 0.00 99 1007.7
20191019033047 8 345 0.0 0.0 0.00 0.05 0.00 99 1007.6
20191019031533 8 148 0.0 0.0 0.00 0.05 0.00 99 1007.7
20191019030048 7 148 0.0 3.2 0.00 0.05 0.00 99 1007.7
20191019024525 7 321 0.0 0.0 0.00 0.05 0.00 99 1008.0
20191019023034 7 321 0.0 3.2 0.00 0.05 0.00 99 1008.1
20191019021522 7 321 0.0 4.8 0.00 0.05 0.00 98 1007.9
20191019020113 7 321 0.0 3.2 0.00 0.05 0.00 98 1007.8
20191019014513 7 321 1.6 6.4 0.00 0.05 0.00 98 1008.0
20191019013028 7 321 0.0 6.4 0.00 0.05 0.00 98 1008.2
20191019011543 7 321 0.0 8.0 0.00 0.05 0.00 98 1008.2
20191019010017 7 321 3.2 6.4 0.00 0.05 0.00 97 1008.2
20191019004600 7 321 3.2 4.8 0.00 0.05 0.00 97 1008.3
20191019003042 7 321 0.0 1.6 0.00 0.05 0.00 97 1008.4
20191019001658 7 321 1.6 6.4 0.00 0.05 0.00 97 1008.5
20191019000026 7 321 3.2 6.4 0.00 0.05 0.00 97 1008.5
20191018234528 7 321 1.6 4.8 0.00 0.05 0.00 97 1008.6
20191018233018 7 273 0.0 0.0 0.00 0.05 0.00 96 1008.6
20191018231526 8 301 0.0 0.0 0.00 0.05 0.00 96 1008.5
20191018230021 8 301 0.0 0.0 0.00 0.08 0.00 96 1008.6
20191018224534 8 301 0.0 0.0 0.00 0.08 0.00 96 1008.6
20191018223041 8 217 0.0 1.6 0.00 0.08 0.00 96 1008.2
20191018221537 8 315 0.0 4.8 0.00 0.08 0.00 96 1008.2
20191018220016 8 226 1.6 6.4 0.00 0.10 0.08 95 1008.2
20191018214635 8 311 0.0 9.7 0.00 0.10 0.08 96 1008.2
20191018213029 8 200 1.6 9.7 0.00 0.10 0.08 95 1008.3
20191018211554 8 197 3.2 8.0 0.00 0.10 0.08 95 1008.4
20191018210037 8 316 0.0 4.8 0.00 0.13 0.08 95 1008.3
20191018204603 8 318 4.8 9.7 0.00 0.13 0.08 94 1008.2
20191018203056 9 321 4.8 9.7 0.00 0.13 0.08 94 1008.1
20191018201547 9 315 1.6 6.4 0.00 0.13 0.08 94 1007.9
20191018200016 9 315 0.0 8.0 0.00 0.13 0.08 93 1008.0
20191018194512 9 315 6.4 8.0 0.00 0.13 0.08 92 1007.7
20191018193011 10 315 3.2 6.4 0.00 0.13 0.08 92 1007.6
20191018191515 10 315 4.8 8.0 0.00 0.13 0.08 91 1007.6
20191018190008 10 232 6.4 9.7 0.00 0.13 0.08 91 1007.6
20191018184603 11 312 3.2 6.4 0.00 0.13 0.08 90 1007.5
20191018183049 11 312 3.2 6.4 0.00 0.13 0.08 89 1007.2
20191018181520 11 331 0.0 6.4 0.00 0.13 0.08 89 1007.1
20191018180036 12 331 1.6 4.8 0.00 0.13 0.08 88 1007.1
20191018174522 13 331 0.0 6.4 0.00 0.13 0.08 87 1007.0
20191018173027 13 37 0.0 4.8 0.00 0.13 0.08 87 1006.9
20191018171513 13 288 0.0 4.8 0.00 0.13 0.08 88 1006.6
20191018170020 13 179 1.6 12.9 0.00 0.13 0.08 88 1006.5
20191018164543 13 326 1.6 8.0 0.00 0.13 0.08 89 1006.4
20191018163103 14 281 1.6 4.8 0.00 0.13 0.08 89 1006.1
20191018161622 15 239 1.6 4.8 0.00 0.13 0.08 88 1006.2
20191018160042 15 246 0.0 3.2 0.00 0.13 0.08 87 1006.0